M/T Chem Alya — D5NE3 — position and weather

sailwx.info

Track history (hours):
 
Tides and Currents Weather Stations Pressure Air Temp Water Temp Dewpoint Dewpoint Depression Visibility Wind Speed Wind Dir Waves Ship Positions

M/T Chem Alya

Last reported at 2018-Feb-06 08:13 UTC. Time now 2018-Feb-22 17:11 UTC.
Position N 36°47' E 003°07'.
Warning: this ship's position is 16 days out of date.

Length 144 m; draft 5.7 m.

Type: Ship. MMSI: 636017886.

Date/timePositionNaut miles runAvg speedWind from/ knotsBaromVisibWave heightAir tempDewpointWater temp
2018-Feb-06 08:13N 36°47' E 003°07'1 2.0
2018-Feb-06 07:56N 36°47' E 003°07'4 8.1
2018-Feb-06 07:29N 36°51' E 003°08'5 9.3
2018-Feb-06 07:00N 36°54' E 003°12'5 9.4
2018-Feb-06 06:30N 36°58' E 003°15'9 9.0
2018-Feb-06 05:30N 37°04' E 003°24'5 9.7
2018-Feb-06 05:00N 37°05' E 003°30'5 9.9
2018-Feb-06 04:30N 37°07' E 003°36'1610.5
2018-Feb-06 03:00N 37°09' E 003°55'510.2
2018-Feb-06 02:30N 37°10' E 004°01'5 9.8
2018-Feb-06 02:00N 37°10' E 004°08'10 9.7
2018-Feb-06 01:00N 37°10' E 004°20'510.0
2018-Feb-06 00:29N 37°10' E 004°26'5 9.8
2018-Feb-05 23:56N 37°10' E 004°33'6 9.6
2018-Feb-05 23:20N 37°11' E 004°40'5 9.7
2018-Feb-05 22:50N 37°11' E 004°46'3 9.1
2018-Feb-05 22:30N 37°11' E 004°50'5 9.1
2018-Feb-05 21:57N 37°11' E 004°56'  
Track history (hours):
 
Tides and Currents Weather Stations Pressure Air Temp Water Temp Dewpoint Dewpoint Depression Visibility Wind Speed Wind Dir Waves Ship Positions

M/T Chem Alya

Last reported at 2018-Feb-06 08:13 UTC. Time now 2018-Feb-22 17:11 UTC.
Position N 36°47' E 003°07'.
Warning: this ship's position is 16 days out of date.

Length 144 m; draft 5.7 m.

Type: Ship. MMSI: 636017886.

Date/timePositionNaut miles runAvg speedWind from/ knotsBaromVisibWave heightAir tempDewpointWater temp
2018-Feb-06 08:13N 36°47' E 003°07'1 2.0
2018-Feb-06 07:56N 36°47' E 003°07'4 8.1
2018-Feb-06 07:29N 36°51' E 003°08'5 9.3
2018-Feb-06 07:00N 36°54' E 003°12'5 9.4
2018-Feb-06 06:30N 36°58' E 003°15'9 9.0
2018-Feb-06 05:30N 37°04' E 003°24'5 9.7
2018-Feb-06 05:00N 37°05' E 003°30'5 9.9
2018-Feb-06 04:30N 37°07' E 003°36'1610.5
2018-Feb-06 03:00N 37°09' E 003°55'510.2
2018-Feb-06 02:30N 37°10' E 004°01'5 9.8
2018-Feb-06 02:00N 37°10' E 004°08'10 9.7
2018-Feb-06 01:00N 37°10' E 004°20'510.0
2018-Feb-06 00:29N 37°10' E 004°26'5 9.8
2018-Feb-05 23:56N 37°10' E 004°33'6 9.6
2018-Feb-05 23:20N 37°11' E 004°40'5 9.7
2018-Feb-05 22:50N 37°11' E 004°46'3 9.1
2018-Feb-05 22:30N 37°11' E 004°50'5 9.1
2018-Feb-05 21:57N 37°11' E 004°56'  

Dump ship's entire track history